createdAt,value
2018-12-15T00:00:21.102Z,13.30
2018-12-15T00:00:53.975Z,13.30
2018-12-15T00:01:28.034Z,13.30
2018-12-15T00:02:00.709Z,13.30
2018-12-15T00:02:33.183Z,13.40
2018-12-15T00:03:06.078Z,13.40
2018-12-15T00:03:38.827Z,13.50
2018-12-15T00:04:11.894Z,13.50
2018-12-15T00:04:44.866Z,13.40
2018-12-15T00:05:17.779Z,13.40
2018-12-15T00:05:51.376Z,13.40
2018-12-15T00:06:24.173Z,13.40
2018-12-15T00:06:57.079Z,13.40
2018-12-15T00:07:30.124Z,13.40
2018-12-15T00:08:02.898Z,13.40
2018-12-15T00:08:35.647Z,13.30
2018-12-15T00:09:08.768Z,13.30
2018-12-15T00:09:41.385Z,13.30
2018-12-15T00:10:14.086Z,13.30
2018-12-15T00:10:46.889Z,13.30
2018-12-15T00:11:19.733Z,13.30
2018-12-15T00:11:52.372Z,13.30
2018-12-15T00:12:25.247Z,13.40
2018-12-15T00:12:58.242Z,13.50
2018-12-15T00:13:31.399Z,13.50
2018-12-15T00:14:04.252Z,13.60
2018-12-15T00:14:37.154Z,13.60
2018-12-15T00:15:09.853Z,13.60
2018-12-15T00:15:42.984Z,13.60
2018-12-15T00:16:15.944Z,13.50
2018-12-15T00:16:48.547Z,13.50
2018-12-15T00:17:21.693Z,13.40
2018-12-15T00:17:54.588Z,13.40
2018-12-15T00:18:27.410Z,13.40
2018-12-15T00:19:00.198Z,13.40
2018-12-15T00:19:33.713Z,13.40
2018-12-15T00:20:06.565Z,13.40
2018-12-15T00:20:39.491Z,13.40
2018-12-15T00:21:12.817Z,13.40
2018-12-15T00:21:45.732Z,13.40
2018-12-15T00:22:18.716Z,13.30
2018-12-15T00:22:51.471Z,13.40
2018-12-15T00:23:24.369Z,13.40
2018-12-15T00:23:57.137Z,13.40
2018-12-15T00:24:30.165Z,13.30
2018-12-15T00:25:03.068Z,13.30
2018-12-15T00:25:35.790Z,13.40
2018-12-15T00:26:08.428Z,13.40
2018-12-15T00:26:41.387Z,13.40
2018-12-15T00:27:14.148Z,13.40
2018-12-15T00:27:47.149Z,13.40
2018-12-15T00:28:20.069Z,13.40
2018-12-15T00:28:52.927Z,13.40
2018-12-15T00:29:25.920Z,13.40
2018-12-15T00:29:58.558Z,13.40
2018-12-15T00:30:31.527Z,13.50
2018-12-15T00:31:04.580Z,13.50
2018-12-15T00:31:37.221Z,13.50
2018-12-15T00:32:09.735Z,13.40
2018-12-15T00:32:42.605Z,13.40
2018-12-15T00:33:14.938Z,13.30
2018-12-15T00:33:47.441Z,13.30
2018-12-15T00:34:20.187Z,13.40
2018-12-15T00:34:52.677Z,13.40
2018-12-15T00:35:25.463Z,13.50
2018-12-15T00:35:58.175Z,13.50
2018-12-15T00:36:31.104Z,13.50
2018-12-15T00:37:04.007Z,13.50
2018-12-15T00:37:37.024Z,13.50
2018-12-15T00:38:10.008Z,13.40
2018-12-15T00:38:43.069Z,13.40
2018-12-15T00:39:16.167Z,13.40
2018-12-15T00:39:49.055Z,13.40
2018-12-15T00:40:22.268Z,13.50
2018-12-15T00:40:54.965Z,13.60
2018-12-15T00:41:28.126Z,13.60
2018-12-15T00:42:00.741Z,13.60
2018-12-15T00:42:33.531Z,13.60
2018-12-15T00:43:06.278Z,13.60
2018-12-15T00:43:39.176Z,13.60
2018-12-15T00:44:12.056Z,13.60
2018-12-15T00:44:44.680Z,13.60
2018-12-15T00:45:17.936Z,13.50
2018-12-15T00:45:50.953Z,13.50
2018-12-15T00:46:23.743Z,13.50
2018-12-15T00:46:56.739Z,13.50
2018-12-15T00:47:29.327Z,13.60
2018-12-15T00:48:02.417Z,13.60
2018-12-15T00:48:35.332Z,13.60
2018-12-15T00:49:08.321Z,13.60
2018-12-15T00:49:41.189Z,13.50
2018-12-15T00:50:14.065Z,13.50
2018-12-15T00:50:46.757Z,13.50
2018-12-15T00:51:19.643Z,13.50
2018-12-15T00:51:52.455Z,13.60
2018-12-15T00:52:25.419Z,13.60
2018-12-15T00:52:57.958Z,13.70
2018-12-15T00:53:30.714Z,13.60
2018-12-15T00:54:03.591Z,13.60
2018-12-15T00:54:36.383Z,13.50
2018-12-15T00:55:09.111Z,13.50
2018-12-15T00:55:42.121Z,13.50
2018-12-15T00:56:15.065Z,13.50
2018-12-15T00:56:47.913Z,13.50
2018-12-15T00:57:20.929Z,13.50
2018-12-15T00:57:54.604Z,13.50
2018-12-15T00:58:27.699Z,13.50
2018-12-15T00:59:00.830Z,13.60
2018-12-15T00:59:33.566Z,13.60
2018-12-15T01:00:06.437Z,13.60
2018-12-15T01:00:39.421Z,13.50
2018-12-15T01:01:12.687Z,13.50
2018-12-15T01:01:45.686Z,13.60
2018-12-15T01:02:18.735Z,13.60
2018-12-15T01:02:51.584Z,13.60
2018-12-15T01:03:24.203Z,13.60
2018-12-15T01:03:57.138Z,13.60
2018-12-15T01:04:30.194Z,13.60
2018-12-15T01:05:03.136Z,13.60
2018-12-15T01:05:36.015Z,13.60
2018-12-15T01:06:09.041Z,13.60
2018-12-15T01:06:42.141Z,13.60
2018-12-15T01:07:14.852Z,13.70
2018-12-15T01:07:47.770Z,13.70
2018-12-15T01:08:20.849Z,13.60
2018-12-15T01:08:53.708Z,13.60
2018-12-15T01:09:26.273Z,13.60
2018-12-15T01:09:58.916Z,13.60
2018-12-15T01:10:32.279Z,13.60
2018-12-15T01:11:05.138Z,13.50
2018-12-15T01:11:38.297Z,13.50
2018-12-15T01:12:11.268Z,13.40
2018-12-15T01:12:44.777Z,13.50
2018-12-15T01:13:17.586Z,13.50
2018-12-15T01:13:50.461Z,13.50
2018-12-15T01:14:23.189Z,13.50
2018-12-15T01:14:55.805Z,13.50
2018-12-15T01:15:28.345Z,13.50
2018-12-15T01:16:01.019Z,13.50
2018-12-15T01:16:34.113Z,13.60
2018-12-15T01:17:06.983Z,13.50
2018-12-15T01:17:40.053Z,13.50
2018-12-15T01:18:12.793Z,13.50
2018-12-15T01:18:45.761Z,13.50
2018-12-15T01:19:19.010Z,13.50
2018-12-15T01:19:51.946Z,13.60
2018-12-15T01:20:24.789Z,13.60
2018-12-15T01:20:57.602Z,13.60
2018-12-15T01:21:30.514Z,13.60
2018-12-15T01:22:03.828Z,13.60
2018-12-15T01:22:36.549Z,13.50
2018-12-15T01:23:09.572Z,13.50
2018-12-15T01:23:42.467Z,13.50
2018-12-15T01:24:15.360Z,13.60
2018-12-15T01:24:48.288Z,13.60
2018-12-15T01:25:20.920Z,13.60
2018-12-15T01:25:54.067Z,13.60
2018-12-15T01:26:26.950Z,13.60
2018-12-15T01:27:44.736Z,13.50
2018-12-15T01:28:17.745Z,13.50
2018-12-15T01:28:50.787Z,13.50
2018-12-15T01:29:23.830Z,13.50
2018-12-15T01:29:56.715Z,13.60
2018-12-15T01:30:29.334Z,13.50
2018-12-15T01:31:02.356Z,13.60
2018-12-15T01:31:35.272Z,13.50
2018-12-15T01:32:08.025Z,13.60
2018-12-15T01:32:40.932Z,13.60
2018-12-15T01:33:13.749Z,13.50
2018-12-15T01:33:46.654Z,13.50
2018-12-15T01:34:19.436Z,13.50
2018-12-15T01:34:52.684Z,13.60
2018-12-15T01:35:26.228Z,13.60
2018-12-15T01:35:59.665Z,13.60
2018-12-15T01:36:32.609Z,13.60
2018-12-15T01:37:05.570Z,13.60
2018-12-15T01:37:38.521Z,13.50
2018-12-15T01:38:11.338Z,13.50
2018-12-15T01:38:44.292Z,13.50
2018-12-15T01:39:17.025Z,13.50
2018-12-15T01:39:49.686Z,13.50
2018-12-15T01:40:23.337Z,13.50
2018-12-15T01:40:56.036Z,13.50
2018-12-15T01:41:29.368Z,13.50
2018-12-15T01:42:02.290Z,13.50
2018-12-15T01:42:35.001Z,13.50
2018-12-15T01:43:08.116Z,13.50
2018-12-15T01:43:41.153Z,13.50
2018-12-15T01:44:14.080Z,13.50
2018-12-15T01:44:47.062Z,13.50
2018-12-15T01:45:19.800Z,13.60
2018-12-15T01:45:52.632Z,13.50
2018-12-15T01:46:25.541Z,13.50
2018-12-15T01:46:58.473Z,13.50
2018-12-15T01:47:31.427Z,13.50
2018-12-15T01:48:04.434Z,13.50
2018-12-15T01:48:37.433Z,13.50
2018-12-15T01:49:10.512Z,13.60
2018-12-15T01:49:43.605Z,13.70
2018-12-15T01:50:16.282Z,13.70
2018-12-15T01:50:49.321Z,13.70
2018-12-15T01:51:22.410Z,13.70
2018-12-15T01:51:55.961Z,13.70
2018-12-15T01:52:28.872Z,13.70
2018-12-15T01:53:01.805Z,13.70
2018-12-15T01:53:34.793Z,13.60
2018-12-15T01:54:07.560Z,13.70
2018-12-15T01:54:40.300Z,13.70
2018-12-15T01:55:13.036Z,13.70
2018-12-15T01:55:45.733Z,13.70
2018-12-15T01:56:19.723Z,13.70
2018-12-15T01:56:52.337Z,13.70
2018-12-15T01:57:25.408Z,13.70
2018-12-15T01:57:58.287Z,13.80
2018-12-15T01:58:31.214Z,13.80
2018-12-15T01:59:04.067Z,13.80
2018-12-15T01:59:37.168Z,13.70
2018-12-15T02:00:09.897Z,13.70
2018-12-15T02:00:42.892Z,13.70
2018-12-15T02:01:16.054Z,13.70
2018-12-15T02:01:48.656Z,13.70
2018-12-15T02:02:21.851Z,13.70
2018-12-15T02:02:55.082Z,13.60
2018-12-15T02:03:27.966Z,13.60
2018-12-15T02:04:01.076Z,13.60
2018-12-15T02:04:34.264Z,13.70
2018-12-15T02:05:07.616Z,13.70
2018-12-15T02:05:40.424Z,13.80
2018-12-15T02:06:13.234Z,13.80
2018-12-15T02:06:45.984Z,13.80
2018-12-15T02:07:18.815Z,13.80
2018-12-15T02:07:52.015Z,13.80
2018-12-15T02:08:24.917Z,13.80
2018-12-15T02:08:58.174Z,13.80
2018-12-15T02:09:30.959Z,13.70
2018-12-15T02:10:03.777Z,13.70
2018-12-15T02:10:36.913Z,13.70
2018-12-15T02:11:10.361Z,13.70
2018-12-15T02:11:43.210Z,13.70
2018-12-15T02:12:16.397Z,13.70
2018-12-15T02:12:49.336Z,13.70
2018-12-15T02:13:22.261Z,13.70
2018-12-15T02:13:55.252Z,13.80
2018-12-15T02:14:27.841Z,13.80
2018-12-15T02:15:00.906Z,13.80
2018-12-15T02:15:33.801Z,13.80
2018-12-15T02:16:06.585Z,13.80
2018-12-15T02:16:40.065Z,13.80
2018-12-15T02:17:12.936Z,13.80
2018-12-15T02:17:45.791Z,13.80
2018-12-15T02:18:18.838Z,13.80
2018-12-15T02:18:52.162Z,13.80
2018-12-15T02:19:25.011Z,13.80
2018-12-15T02:19:58.072Z,13.70
2018-12-15T02:20:30.593Z,13.70
2018-12-15T02:21:03.490Z,13.80
2018-12-15T02:21:36.661Z,13.80
2018-12-15T02:22:09.831Z,13.80
2018-12-15T02:22:43.367Z,13.70
2018-12-15T02:23:16.010Z,13.70
2018-12-15T02:23:48.708Z,13.70
2018-12-15T02:24:22.130Z,13.70
2018-12-15T02:24:55.181Z,13.70
2018-12-15T02:25:28.657Z,13.70
2018-12-15T02:26:01.705Z,13.70
2018-12-15T02:26:34.759Z,13.60
2018-12-15T02:27:08.096Z,13.60
2018-12-15T02:27:41.000Z,13.70
2018-12-15T02:28:13.872Z,13.60
2018-12-15T02:28:47.035Z,13.60
2018-12-15T02:29:20.730Z,13.60
2018-12-15T02:29:53.812Z,13.60
2018-12-15T02:30:27.163Z,13.50
2018-12-15T02:31:00.138Z,13.50
2018-12-15T02:31:33.015Z,13.50
2018-12-15T02:32:06.309Z,13.50
2018-12-15T02:32:39.358Z,13.50
2018-12-15T02:33:12.113Z,13.60
2018-12-15T02:33:44.944Z,13.60
2018-12-15T02:34:17.526Z,13.60
2018-12-15T02:34:49.645Z,13.50
2018-12-15T02:35:21.777Z,13.50
2018-12-15T02:35:54.179Z,13.50
2018-12-15T02:36:26.284Z,13.50
2018-12-15T02:36:58.999Z,13.50
2018-12-15T02:37:31.896Z,13.50
2018-12-15T02:38:04.607Z,13.40
2018-12-15T02:38:38.239Z,13.40
2018-12-15T02:39:11.390Z,13.40
2018-12-15T02:39:44.292Z,13.40
2018-12-15T02:40:17.307Z,13.40
2018-12-15T02:40:50.201Z,13.40
2018-12-15T02:41:22.952Z,13.50
2018-12-15T02:41:55.895Z,13.60
2018-12-15T02:42:28.877Z,13.70
2018-12-15T02:43:02.156Z,13.70
2018-12-15T02:43:35.046Z,13.70
2018-12-15T02:44:07.997Z,13.70
2018-12-15T02:44:41.070Z,13.70
2018-12-15T02:45:13.985Z,13.70
2018-12-15T02:45:46.990Z,13.70
2018-12-15T02:46:19.990Z,13.60
2018-12-15T02:46:53.062Z,13.60
2018-12-15T02:47:26.200Z,13.50
2018-12-15T02:47:59.367Z,13.50
2018-12-15T02:48:32.445Z,13.50
2018-12-15T02:49:05.186Z,13.50
2018-12-15T02:49:37.948Z,13.50
2018-12-15T02:50:11.953Z,13.60
2018-12-15T02:50:45.491Z,13.60
2018-12-15T02:51:18.628Z,13.60
2018-12-15T02:51:51.671Z,13.60
2018-12-15T02:52:24.625Z,13.70
2018-12-15T02:52:57.581Z,13.70
2018-12-15T02:53:30.509Z,13.70
2018-12-15T02:54:03.798Z,13.70
2018-12-15T02:54:37.044Z,13.70
2018-12-15T02:55:09.965Z,13.70
2018-12-15T02:55:43.103Z,13.70
2018-12-15T02:56:16.009Z,13.70
2018-12-15T02:56:49.275Z,13.60
2018-12-15T02:57:22.281Z,13.60
2018-12-15T02:57:55.296Z,13.50
2018-12-15T02:58:28.235Z,13.50
2018-12-15T02:59:01.224Z,13.50
2018-12-15T02:59:34.164Z,13.50
2018-12-15T03:00:07.516Z,13.50
2018-12-15T03:00:40.665Z,13.60
2018-12-15T03:01:13.514Z,13.70
2018-12-15T03:01:46.267Z,13.70
2018-12-15T03:02:19.707Z,13.70
2018-12-15T03:02:53.191Z,13.70
2018-12-15T03:03:26.282Z,13.70
2018-12-15T03:03:59.352Z,13.70
2018-12-15T03:04:32.701Z,13.70
2018-12-15T03:05:05.750Z,13.80
2018-12-15T03:05:38.429Z,13.80
2018-12-15T03:06:11.280Z,13.80
2018-12-15T03:06:44.773Z,13.80
2018-12-15T03:07:18.010Z,13.80
2018-12-15T03:07:51.287Z,13.80
2018-12-15T03:08:24.204Z,13.70
2018-12-15T03:08:57.087Z,13.70
2018-12-15T03:09:30.463Z,13.70
2018-12-15T03:10:03.206Z,13.70
2018-12-15T03:10:36.198Z,13.70
2018-12-15T03:11:08.976Z,13.70
2018-12-15T03:11:42.021Z,13.70
2018-12-15T03:12:15.190Z,13.70
2018-12-15T03:12:48.239Z,13.60
2018-12-15T03:13:21.701Z,13.60
2018-12-15T03:13:54.710Z,13.50
2018-12-15T03:14:27.762Z,13.50
2018-12-15T03:15:00.673Z,13.50
2018-12-15T03:15:33.781Z,13.50
2018-12-15T03:16:06.622Z,13.50
2018-12-15T03:16:39.681Z,13.50
2018-12-15T03:17:12.525Z,13.40
2018-12-15T03:17:48.841Z,13.50
2018-12-15T03:18:19.793Z,13.50
2018-12-15T03:18:52.691Z,13.50
2018-12-15T03:19:25.436Z,13.50
2018-12-15T03:19:58.531Z,13.50
2018-12-15T03:20:31.492Z,13.50
2018-12-15T03:21:04.268Z,13.50
2018-12-15T03:21:37.559Z,13.50
2018-12-15T03:22:10.648Z,13.50
2018-12-15T03:22:43.725Z,13.50
2018-12-15T03:23:16.581Z,13.50
2018-12-15T03:23:49.534Z,13.50
2018-12-15T03:24:22.481Z,13.60
2018-12-15T03:24:55.536Z,13.60
2018-12-15T03:25:28.458Z,13.60
2018-12-15T03:26:01.384Z,13.60
2018-12-15T03:26:34.345Z,13.60
2018-12-15T03:27:07.264Z,13.60
2018-12-15T03:27:40.413Z,13.60
2018-12-15T03:28:13.255Z,13.70
2018-12-15T03:28:46.256Z,13.70
2018-12-15T03:29:19.214Z,13.70
2018-12-15T03:29:51.922Z,13.60
2018-12-15T03:30:24.715Z,13.60
2018-12-15T03:30:57.525Z,13.60
2018-12-15T03:31:30.364Z,13.60
2018-12-15T03:32:03.313Z,13.60
2018-12-15T03:32:36.182Z,13.60
2018-12-15T03:33:09.177Z,13.60
2018-12-15T03:33:42.398Z,13.60
2018-12-15T03:34:15.964Z,13.60
2018-12-15T03:34:48.625Z,13.70
2018-12-15T03:35:21.554Z,13.70
2018-12-15T03:35:54.280Z,13.70
2018-12-15T03:36:27.263Z,13.70
2018-12-15T03:37:00.104Z,13.60
2018-12-15T03:37:33.076Z,13.60
2018-12-15T03:38:06.090Z,13.60
2018-12-15T03:38:38.712Z,13.60
2018-12-15T03:39:11.888Z,13.60
2018-12-15T03:39:44.779Z,13.60
2018-12-15T03:40:17.889Z,13.60
2018-12-15T03:40:50.498Z,13.70
2018-12-15T03:41:23.288Z,13.70
2018-12-15T03:41:56.560Z,13.70
2018-12-15T03:42:29.589Z,13.80
2018-12-15T03:43:02.390Z,13.80
2018-12-15T03:43:35.781Z,13.80
2018-12-15T03:44:08.800Z,13.80
2018-12-15T03:44:41.906Z,13.80
2018-12-15T03:45:15.347Z,13.70
2018-12-15T03:45:48.616Z,13.70
2018-12-15T03:46:23.525Z,13.70
2018-12-15T03:46:56.274Z,13.70
2018-12-15T03:47:29.361Z,13.60
2018-12-15T03:48:02.428Z,13.50
2018-12-15T03:48:35.321Z,13.50
2018-12-15T03:49:08.116Z,13.50
2018-12-15T03:49:40.838Z,13.50
2018-12-15T03:50:14.277Z,13.50
2018-12-15T03:50:47.114Z,13.50
2018-12-15T03:51:20.546Z,13.50
2018-12-15T03:51:53.422Z,13.50
2018-12-15T03:52:26.345Z,13.50
2018-12-15T03:52:59.574Z,13.50
2018-12-15T03:53:32.446Z,13.60
2018-12-15T03:54:05.762Z,13.50
2018-12-15T03:54:38.863Z,13.50
2018-12-15T03:55:11.512Z,13.50
2018-12-15T03:55:44.687Z,13.60
2018-12-15T03:56:17.937Z,13.70
2018-12-15T03:56:51.011Z,13.70
2018-12-15T03:57:23.733Z,13.70
2018-12-15T03:57:56.663Z,13.70
2018-12-15T03:58:30.169Z,13.70
2018-12-15T03:59:02.913Z,13.80
2018-12-15T03:59:35.964Z,13.80
2018-12-15T04:00:08.685Z,13.80
2018-12-15T04:00:41.638Z,13.80
2018-12-15T04:01:14.714Z,13.80
2018-12-15T04:01:47.677Z,13.70
2018-12-15T04:02:20.693Z,13.70
2018-12-15T04:02:53.614Z,13.70
2018-12-15T04:03:26.428Z,13.60
2018-12-15T04:03:59.361Z,13.60
2018-12-15T04:04:32.211Z,13.60
2018-12-15T04:05:05.260Z,13.60
2018-12-15T04:05:38.154Z,13.60
2018-12-15T04:06:10.984Z,13.60
2018-12-15T04:06:44.341Z,13.50
2018-12-15T04:07:17.232Z,13.60
2018-12-15T04:07:50.259Z,13.70
2018-12-15T04:08:23.697Z,13.70
2018-12-15T04:08:56.668Z,13.70
2018-12-15T04:09:29.564Z,13.70
2018-12-15T04:10:02.171Z,13.70
2018-12-15T04:10:34.941Z,13.70
2018-12-15T04:11:07.819Z,13.70
2018-12-15T04:11:40.840Z,13.70
2018-12-15T04:12:13.625Z,13.70
2018-12-15T04:12:46.689Z,13.70
2018-12-15T04:13:19.488Z,13.70
2018-12-15T04:13:52.416Z,13.70
2018-12-15T04:14:25.128Z,13.70
2018-12-15T04:14:57.898Z,13.70
2018-12-15T04:15:30.509Z,13.70
2018-12-15T04:16:03.423Z,13.80
2018-12-15T04:16:36.405Z,13.70
2018-12-15T04:17:09.468Z,13.70
2018-12-15T04:17:42.569Z,13.70
2018-12-15T04:18:15.317Z,13.70
2018-12-15T04:18:48.267Z,13.70
2018-12-15T04:19:20.933Z,13.70
2018-12-15T04:19:53.977Z,13.60
2018-12-15T04:20:26.993Z,13.70
2018-12-15T04:20:59.974Z,13.70
2018-12-15T04:21:33.609Z,13.70
2018-12-15T04:22:06.714Z,13.70
2018-12-15T04:22:39.459Z,13.60
2018-12-15T04:23:12.511Z,13.60
2018-12-15T04:23:45.565Z,13.60
2018-12-15T04:24:18.582Z,13.60
2018-12-15T04:24:51.281Z,13.60
2018-12-15T04:25:24.356Z,13.60
2018-12-15T04:25:57.961Z,13.60
2018-12-15T04:26:31.069Z,13.60
2018-12-15T04:27:04.645Z,13.60
2018-12-15T04:27:37.547Z,13.60
2018-12-15T04:28:10.527Z,13.60
2018-12-15T04:28:44.045Z,13.60
2018-12-15T04:29:16.808Z,13.60
2018-12-15T04:29:49.746Z,13.50
2018-12-15T04:30:23.012Z,13.50
2018-12-15T04:30:55.756Z,13.50
2018-12-15T04:31:28.677Z,13.60
2018-12-15T04:32:01.593Z,13.60
2018-12-15T04:32:34.082Z,13.60
2018-12-15T04:33:06.587Z,13.60
2018-12-15T04:33:39.352Z,13.60
2018-12-15T04:34:12.618Z,13.60
2018-12-15T04:34:45.381Z,13.70
2018-12-15T04:35:18.453Z,13.70
2018-12-15T04:35:51.980Z,13.80
2018-12-15T04:36:24.700Z,13.80
2018-12-15T04:36:57.646Z,13.80
2018-12-15T04:37:30.512Z,13.80
2018-12-15T04:38:03.821Z,13.70
2018-12-15T04:38:36.711Z,13.70
2018-12-15T04:39:09.531Z,13.70
2018-12-15T04:39:42.088Z,13.70
2018-12-15T04:40:14.760Z,13.70
2018-12-15T04:40:47.859Z,13.80
2018-12-15T04:41:21.842Z,13.80
2018-12-15T04:41:54.815Z,13.80
2018-12-15T04:42:27.578Z,13.90
2018-12-15T04:43:00.553Z,13.90
2018-12-15T04:43:33.633Z,13.80
2018-12-15T04:44:06.360Z,13.80
2018-12-15T04:44:39.164Z,13.80
2018-12-15T04:45:12.280Z,13.80
2018-12-15T04:45:45.119Z,13.70
2018-12-15T04:46:18.131Z,13.70
2018-12-15T04:46:51.080Z,13.70
2018-12-15T04:47:23.910Z,13.70
2018-12-15T04:47:56.822Z,13.60
2018-12-15T04:48:29.760Z,13.60
2018-12-15T04:49:02.702Z,13.70
2018-12-15T04:49:35.426Z,13.80
2018-12-15T04:50:08.196Z,13.80
2018-12-15T04:50:41.021Z,13.80
2018-12-15T04:51:13.881Z,13.90
2018-12-15T04:51:46.642Z,13.90
2018-12-15T04:52:19.331Z,13.90
2018-12-15T04:52:51.992Z,13.90
2018-12-15T04:53:25.345Z,13.90
2018-12-15T04:53:58.141Z,13.90
2018-12-15T04:54:30.956Z,13.80
2018-12-15T04:55:03.752Z,13.80
2018-12-15T04:55:36.742Z,13.80
2018-12-15T04:56:10.062Z,13.80
2018-12-15T04:56:43.084Z,13.70
2018-12-15T04:57:16.532Z,13.70
2018-12-15T04:57:49.424Z,13.70
2018-12-15T04:58:22.060Z,13.70
2018-12-15T04:58:54.756Z,13.70
2018-12-15T04:59:27.496Z,13.60
2018-12-15T05:00:00.496Z,13.60
2018-12-15T05:00:34.050Z,13.60
2018-12-15T05:01:06.733Z,13.70
2018-12-15T05:01:39.622Z,13.70
2018-12-15T05:02:12.376Z,13.70
2018-12-15T05:02:45.370Z,13.70
2018-12-15T05:03:18.209Z,13.80
2018-12-15T05:03:51.304Z,13.90
2018-12-15T05:04:24.185Z,13.90
2018-12-15T05:04:57.154Z,13.90
2018-12-15T05:05:30.231Z,13.90
2018-12-15T05:06:03.110Z,13.90
2018-12-15T05:06:36.097Z,13.80
2018-12-15T05:07:09.013Z,13.80
2018-12-15T05:07:42.043Z,13.70
2018-12-15T05:08:14.855Z,13.70
2018-12-15T05:08:47.687Z,13.70
2018-12-15T05:09:20.771Z,13.70
2018-12-15T05:09:53.402Z,13.70
2018-12-15T05:10:26.449Z,13.70
2018-12-15T05:10:59.054Z,13.70
2018-12-15T05:11:32.351Z,13.70
2018-12-15T05:12:05.228Z,13.70
2018-12-15T05:12:37.940Z,13.70
2018-12-15T05:13:10.715Z,13.80
2018-12-15T05:13:43.801Z,13.70
2018-12-15T05:14:16.827Z,13.80
2018-12-15T05:14:49.968Z,13.80
2018-12-15T05:15:23.103Z,13.80
2018-12-15T05:15:55.950Z,13.80
2018-12-15T05:16:28.749Z,13.80
2018-12-15T05:17:02.113Z,13.80
2018-12-15T05:17:34.797Z,13.80
2018-12-15T05:18:07.694Z,13.90
2018-12-15T05:18:40.569Z,13.90
2018-12-15T05:19:13.340Z,13.90
2018-12-15T05:19:47.305Z,13.90
2018-12-15T05:20:20.084Z,14.00
2018-12-15T05:20:52.919Z,14.00
2018-12-15T05:21:25.602Z,13.90
2018-12-15T05:21:58.451Z,13.90
2018-12-15T05:22:31.219Z,13.80
2018-12-15T05:23:04.389Z,13.80
2018-12-15T05:23:37.557Z,13.80
2018-12-15T05:24:10.780Z,13.80
2018-12-15T05:24:43.560Z,13.80
2018-12-15T05:25:16.218Z,13.80
2018-12-15T05:25:49.033Z,13.80
2018-12-15T05:26:21.758Z,13.80
2018-12-15T05:26:54.401Z,13.80
2018-12-15T05:27:27.240Z,13.80
2018-12-15T05:28:00.337Z,13.70
2018-12-15T05:28:33.258Z,13.70
2018-12-15T05:29:06.270Z,13.70
2018-12-15T05:29:39.986Z,13.70
2018-12-15T05:30:12.541Z,13.70
2018-12-15T05:30:45.950Z,13.80
2018-12-15T05:31:19.058Z,13.90
2018-12-15T05:31:51.656Z,13.90
2018-12-15T05:32:25.017Z,13.80
2018-12-15T05:32:57.631Z,13.90
2018-12-15T05:33:30.244Z,13.90
2018-12-15T05:34:03.037Z,13.90
2018-12-15T05:34:36.386Z,13.90
2018-12-15T05:35:09.137Z,13.90
2018-12-15T05:35:42.520Z,13.90
2018-12-15T05:36:15.328Z,14.00
2018-12-15T05:36:48.266Z,14.00
2018-12-15T05:37:21.190Z,14.00
2018-12-15T05:37:53.897Z,14.00
2018-12-15T05:38:27.012Z,14.00
2018-12-15T05:38:59.628Z,14.00
2018-12-15T05:39:33.049Z,13.90
2018-12-15T05:40:06.741Z,13.90
2018-12-15T05:40:39.547Z,13.80
2018-12-15T05:41:12.322Z,13.90
2018-12-15T05:41:45.395Z,13.90
2018-12-15T05:42:18.067Z,14.00
2018-12-15T05:42:50.884Z,14.00
2018-12-15T05:43:24.106Z,13.90
2018-12-15T05:43:57.521Z,13.90
2018-12-15T05:44:30.748Z,13.80
2018-12-15T05:45:03.998Z,13.90
2018-12-15T05:45:36.754Z,13.90
2018-12-15T05:46:09.684Z,14.00
2018-12-15T05:46:42.395Z,14.00
2018-12-15T05:47:15.793Z,14.00
2018-12-15T05:47:48.822Z,14.00
2018-12-15T05:48:25.153Z,14.00
2018-12-15T05:48:57.055Z,14.00
2018-12-15T05:49:30.468Z,14.00
2018-12-15T05:50:03.537Z,13.90
2018-12-15T05:50:36.696Z,13.90
2018-12-15T05:51:09.656Z,13.90
2018-12-15T05:51:42.622Z,13.80
2018-12-15T05:52:15.422Z,13.90
2018-12-15T05:52:49.660Z,14.00
2018-12-15T05:53:22.583Z,13.90
2018-12-15T05:53:55.807Z,13.90
2018-12-15T05:54:29.024Z,13.90
2018-12-15T05:55:02.580Z,13.90
2018-12-15T05:55:35.381Z,14.00
2018-12-15T05:56:08.297Z,14.00
2018-12-15T05:56:41.931Z,14.00
2018-12-15T05:57:14.753Z,14.00
2018-12-15T05:57:47.581Z,14.00
2018-12-15T05:58:20.511Z,14.10
2018-12-15T05:58:53.798Z,14.00
2018-12-15T05:59:26.653Z,14.00
2018-12-15T05:59:59.584Z,14.00
2018-12-15T06:00:32.419Z,14.10
2018-12-15T06:01:05.890Z,14.10
2018-12-15T06:01:38.475Z,14.00
2018-12-15T06:02:11.412Z,14.00
2018-12-15T06:02:44.487Z,14.00
2018-12-15T06:03:17.528Z,14.00
2018-12-15T06:03:50.641Z,14.10
2018-12-15T06:04:23.423Z,14.00
2018-12-15T06:04:56.546Z,14.10
2018-12-15T06:05:29.519Z,14.10
2018-12-15T06:06:02.542Z,14.10
2018-12-15T06:06:35.337Z,14.10
2018-12-15T06:07:08.115Z,14.10
2018-12-15T06:07:41.073Z,14.10
2018-12-15T06:08:13.736Z,14.10
2018-12-15T06:08:46.765Z,14.00
2018-12-15T06:09:20.086Z,13.90
2018-12-15T06:09:53.029Z,13.90
2018-12-15T06:10:26.245Z,13.90
2018-12-15T06:10:59.261Z,13.90
2018-12-15T06:11:32.869Z,13.90
2018-12-15T06:12:05.744Z,13.80
2018-12-15T06:12:39.153Z,13.80
2018-12-15T06:13:11.794Z,13.80
2018-12-15T06:13:44.724Z,13.80
2018-12-15T06:14:17.463Z,13.90
2018-12-15T06:14:50.426Z,13.90
2018-12-15T06:15:23.335Z,14.00
2018-12-15T06:15:56.145Z,14.00
2018-12-15T06:16:29.286Z,14.00
2018-12-15T06:17:02.339Z,14.00
2018-12-15T06:17:35.168Z,14.00
2018-12-15T06:18:08.241Z,14.00
2018-12-15T06:18:41.178Z,14.00
2018-12-15T06:19:14.233Z,14.00
2018-12-15T06:19:47.018Z,13.90
2018-12-15T06:20:19.860Z,13.90
2018-12-15T06:20:52.554Z,13.90
2018-12-15T06:21:25.639Z,13.90
2018-12-15T06:21:58.479Z,13.90
2018-12-15T06:22:31.047Z,13.90
2018-12-15T06:23:04.005Z,13.90
2018-12-15T06:23:36.698Z,13.90
2018-12-15T06:24:09.835Z,13.90
2018-12-15T06:24:43.257Z,13.90
2018-12-15T06:25:16.053Z,13.90
2018-12-15T06:25:49.407Z,13.90
2018-12-15T06:26:22.510Z,13.90
2018-12-15T06:26:55.578Z,13.90
2018-12-15T06:27:28.399Z,13.90
2018-12-15T06:28:02.010Z,13.90
2018-12-15T06:28:34.831Z,13.90
2018-12-15T06:29:07.973Z,13.90
2018-12-15T06:29:40.831Z,13.90
2018-12-15T06:30:13.726Z,13.90
2018-12-15T06:30:47.105Z,14.00
2018-12-15T06:31:19.895Z,14.00
2018-12-15T06:31:53.088Z,14.10
2018-12-15T06:32:25.945Z,14.10
2018-12-15T06:32:59.166Z,14.10
2018-12-15T06:33:32.154Z,14.00
2018-12-15T06:34:05.100Z,14.00
2018-12-15T06:34:38.148Z,14.00
2018-12-15T06:35:10.788Z,14.00
2018-12-15T06:35:44.140Z,14.00
2018-12-15T06:36:17.237Z,14.00
2018-12-15T06:36:49.978Z,13.90
2018-12-15T06:37:23.045Z,13.90
2018-12-15T06:37:55.889Z,13.90
2018-12-15T06:38:28.916Z,13.90
2018-12-15T06:39:01.903Z,13.90
2018-12-15T06:39:34.829Z,13.80
2018-12-15T06:40:07.730Z,13.80
2018-12-15T06:40:40.609Z,13.90
2018-12-15T06:41:14.064Z,13.90
2018-12-15T06:41:46.797Z,14.00
2018-12-15T06:42:19.715Z,14.00
2018-12-15T06:42:53.156Z,14.00
2018-12-15T06:43:26.114Z,13.90
2018-12-15T06:43:59.268Z,13.90
2018-12-15T06:44:32.197Z,13.90
2018-12-15T06:45:06.005Z,14.00
2018-12-15T06:45:38.936Z,14.00
2018-12-15T06:46:11.981Z,14.00
2018-12-15T06:46:44.838Z,13.90
2018-12-15T06:47:17.512Z,13.90
2018-12-15T06:47:50.565Z,13.90
2018-12-15T06:48:23.396Z,13.80
2018-12-15T06:48:56.695Z,13.80
2018-12-15T06:49:29.376Z,13.80
2018-12-15T06:50:02.339Z,13.70
2018-12-15T06:50:35.387Z,13.80
2018-12-15T06:51:08.009Z,13.80
2018-12-15T06:51:41.003Z,13.80
2018-12-15T06:52:14.845Z,13.80
2018-12-15T06:52:48.201Z,13.70
2018-12-15T06:53:21.147Z,13.80
2018-12-15T06:53:54.252Z,13.90
2018-12-15T06:54:27.160Z,13.90
2018-12-15T06:55:00.313Z,13.90
2018-12-15T06:55:33.033Z,13.80
2018-12-15T06:56:06.203Z,13.80
2018-12-15T06:56:39.090Z,13.80
2018-12-15T06:57:12.016Z,13.80
2018-12-15T06:57:45.352Z,13.80
2018-12-15T06:58:18.087Z,13.80
2018-12-15T06:58:51.128Z,13.80
2018-12-15T06:59:24.157Z,13.70
2018-12-15T06:59:56.875Z,13.70
2018-12-15T07:00:29.589Z,13.70
2018-12-15T07:01:02.195Z,13.70
2018-12-15T07:01:35.112Z,13.70
2018-12-15T07:02:08.093Z,13.70
2018-12-15T07:02:40.904Z,13.70
2018-12-15T07:03:13.917Z,13.70
2018-12-15T07:03:45.988Z,13.70
2018-12-15T07:04:18.219Z,13.60
2018-12-15T07:04:51.031Z,13.60
2018-12-15T07:05:23.976Z,13.60